Terminal Aerodrome Forecast
Issued by NWS

Home | Current Version | Previous Version | Text Only | Print | Product List | Glossary On
Versions: 1 2 3 4 5 6 7 8 9 10 11 12 13 14
157
FTUS44 KTSA 282321
TAFBVO
TAF
KBVO 282321Z 2900/2924 18011G20KT P6SM SCT250
     FM290200 17008KT P6SM SCT250
     FM291400 18011G20KT P6SM FEW040 BKN250
     FM291900 18013G22KT P6SM SCT050 SCT250=

USA.gov is the U.S. government's official web portal to all federal, state and local government web resources and services.